Terminal Aerodrome Forecast
Issued by NWS Buffalo, NY

Home | Current Version | Previous Version | Text Only | Print | Product List | Glossary On
Versions: 1 2 3 4 5 6 7 8 9 10 11 12 13 14 15 16 17 18 19 20 21 22 23 24
000
FTUS41 KBUF 242338
TAFROC
TAF
KROC 242338Z 2500/2524 27005KT P6SM OVC045
     FM250200 31004KT P6SM VCSH OVC025
     FM250400 36005KT 2SM -RA BR OVC007
     FM250700 04006KT 2SM -RA BR OVC007
     FM251400 04011KT 6SM -RA OVC007
     FM252100 06010KT P6SM VCSH OVC012=

USA.gov is the U.S. government's official web portal to all federal, state and local government web resources and services.